sensor_id;sensor_type;location;lat;lon;timestamp;temperature;humidity
12578;DHT22;6354;51.026;8.968;2022-08-19T00:00:38;20.40;99.90
12578;DHT22;6354;51.026;8.968;2022-08-19T00:03:06;20.40;99.90
12578;DHT22;6354;51.026;8.968;2022-08-19T00:05:35;20.40;99.90
12578;DHT22;6354;51.026;8.968;2022-08-19T00:08:04;20.40;99.90
12578;DHT22;6354;51.026;8.968;2022-08-19T00:10:32;20.40;99.90
12578;DHT22;6354;51.026;8.968;2022-08-19T00:13:00;20.40;99.90
12578;DHT22;6354;51.026;8.968;2022-08-19T00:15:28;20.40;99.90
12578;DHT22;6354;51.026;8.968;2022-08-19T00:17:56;20.40;99.90
12578;DHT22;6354;51.026;8.968;2022-08-19T00:20:24;20.40;99.90
12578;DHT22;6354;51.026;8.968;2022-08-19T00:22:53;20.40;99.90
12578;DHT22;6354;51.026;8.968;2022-08-19T00:25:23;20.40;99.90
12578;DHT22;6354;51.026;8.968;2022-08-19T00:27:56;20.40;99.90
12578;DHT22;6354;51.026;8.968;2022-08-19T00:30:24;20.40;99.90
12578;DHT22;6354;51.026;8.968;2022-08-19T00:32:52;20.40;99.90
12578;DHT22;6354;51.026;8.968;2022-08-19T00:35:21;20.50;99.90
12578;DHT22;6354;51.026;8.968;2022-08-19T00:37:49;20.50;99.90
12578;DHT22;6354;51.026;8.968;2022-08-19T00:40:18;20.50;99.90
12578;DHT22;6354;51.026;8.968;2022-08-19T00:42:47;20.50;99.90
12578;DHT22;6354;51.026;8.968;2022-08-19T00:45:18;20.50;99.90
12578;DHT22;6354;51.026;8.968;2022-08-19T00:47:46;20.50;99.90
12578;DHT22;6354;51.026;8.968;2022-08-19T00:50:17;20.50;99.90
12578;DHT22;6354;51.026;8.968;2022-08-19T00:52:49;20.50;99.90
12578;DHT22;6354;51.026;8.968;2022-08-19T00:55:20;20.50;99.90
12578;DHT22;6354;51.026;8.968;2022-08-19T00:57:53;20.50;99.90
12578;DHT22;6354;51.026;8.968;2022-08-19T01:00:25;20.50;99.90
12578;DHT22;6354;51.026;8.968;2022-08-19T01:02:54;20.50;99.90
12578;DHT22;6354;51.026;8.968;2022-08-19T01:05:26;20.50;99.90
12578;DHT22;6354;51.026;8.968;2022-08-19T01:07:56;20.50;99.90
12578;DHT22;6354;51.026;8.968;2022-08-19T01:10:27;20.40;99.90
12578;DHT22;6354;51.026;8.968;2022-08-19T01:13:03;20.50;99.90
12578;DHT22;6354;51.026;8.968;2022-08-19T01:15:38;20.40;99.90
12578;DHT22;6354;51.026;8.968;2022-08-19T01:18:11;20.40;99.90
12578;DHT22;6354;51.026;8.968;2022-08-19T01:20:40;20.40;99.90
12578;DHT22;6354;51.026;8.968;2022-08-19T01:23:10;20.40;99.90
12578;DHT22;6354;51.026;8.968;2022-08-19T01:25:42;20.40;99.90
12578;DHT22;6354;51.026;8.968;2022-08-19T01:28:17;20.40;99.90
12578;DHT22;6354;51.026;8.968;2022-08-19T01:31:00;20.40;99.90
12578;DHT22;6354;51.026;8.968;2022-08-19T01:33:34;20.40;99.90
12578;DHT22;6354;51.026;8.968;2022-08-19T01:36:11;20.40;99.90
12578;DHT22;6354;51.026;8.968;2022-08-19T01:38:42;20.40;99.90
12578;DHT22;6354;51.026;8.968;2022-08-19T01:41:12;20.40;99.90
12578;DHT22;6354;51.026;8.968;2022-08-19T01:43:40;20.40;99.90
12578;DHT22;6354;51.026;8.968;2022-08-19T01:46:28;20.40;99.90
12578;DHT22;6354;51.026;8.968;2022-08-19T01:48:56;20.40;99.90
12578;DHT22;6354;51.026;8.968;2022-08-19T01:51:24;20.40;99.90
12578;DHT22;6354;51.026;8.968;2022-08-19T01:53:56;20.40;99.90
12578;DHT22;6354;51.026;8.968;2022-08-19T01:56:25;20.40;99.90
12578;DHT22;6354;51.026;8.968;2022-08-19T01:58:55;20.40;99.90
12578;DHT22;6354;51.026;8.968;2022-08-19T02:01:23;20.40;99.90
12578;DHT22;6354;51.026;8.968;2022-08-19T02:03:57;20.40;99.90
12578;DHT22;6354;51.026;8.968;2022-08-19T02:06:25;20.40;99.90
12578;DHT22;6354;51.026;8.968;2022-08-19T02:08:55;20.40;99.90
12578;DHT22;6354;51.026;8.968;2022-08-19T02:11:25;20.40;99.90
12578;DHT22;6354;51.026;8.968;2022-08-19T02:13:54;20.40;99.90
12578;DHT22;6354;51.026;8.968;2022-08-19T02:16:23;20.40;99.90
12578;DHT22;6354;51.026;8.968;2022-08-19T02:18:53;20.40;99.90
12578;DHT22;6354;51.026;8.968;2022-08-19T02:21:23;20.40;99.90
12578;DHT22;6354;51.026;8.968;2022-08-19T02:23:51;20.40;99.90
12578;DHT22;6354;51.026;8.968;2022-08-19T02:26:22;20.30;99.90
12578;DHT22;6354;51.026;8.968;2022-08-19T02:28:50;20.40;99.90
12578;DHT22;6354;51.026;8.968;2022-08-19T02:31:19;20.30;99.90
12578;DHT22;6354;51.026;8.968;2022-08-19T02:33:51;20.30;99.90
12578;DHT22;6354;51.026;8.968;2022-08-19T02:36:23;20.30;99.90
12578;DHT22;6354;51.026;8.968;2022-08-19T02:38:52;20.30;99.90
12578;DHT22;6354;51.026;8.968;2022-08-19T02:41:24;20.30;99.90
12578;DHT22;6354;51.026;8.968;2022-08-19T02:43:53;20.30;99.90
12578;DHT22;6354;51.026;8.968;2022-08-19T02:46:41;20.30;99.90
12578;DHT22;6354;51.026;8.968;2022-08-19T02:49:10;20.30;99.90
12578;DHT22;6354;51.026;8.968;2022-08-19T02:51:44;20.30;99.90
12578;DHT22;6354;51.026;8.968;2022-08-19T02:54:13;20.30;99.90
12578;DHT22;6354;51.026;8.968;2022-08-19T02:56:43;20.20;99.90
12578;DHT22;6354;51.026;8.968;2022-08-19T02:59:11;20.20;99.90
12578;DHT22;6354;51.026;8.968;2022-08-19T03:01:41;20.20;99.90
12578;DHT22;6354;51.026;8.968;2022-08-19T03:04:11;20.20;99.90
12578;DHT22;6354;51.026;8.968;2022-08-19T03:06:41;20.20;99.90
12578;DHT22;6354;51.026;8.968;2022-08-19T03:09:10;20.20;99.90
12578;DHT22;6354;51.026;8.968;2022-08-19T03:11:38;20.20;99.90
12578;DHT22;6354;51.026;8.968;2022-08-19T03:14:09;20.20;99.90
12578;DHT22;6354;51.026;8.968;2022-08-19T03:16:41;20.20;99.90
12578;DHT22;6354;51.026;8.968;2022-08-19T03:19:10;20.30;99.90
12578;DHT22;6354;51.026;8.968;2022-08-19T03:21:38;20.30;99.90
12578;DHT22;6354;51.026;8.968;2022-08-19T03:24:08;20.30;99.90
12578;DHT22;6354;51.026;8.968;2022-08-19T03:26:39;20.30;99.90
12578;DHT22;6354;51.026;8.968;2022-08-19T03:29:09;20.30;99.90
12578;DHT22;6354;51.026;8.968;2022-08-19T03:31:40;20.30;99.90
12578;DHT22;6354;51.026;8.968;2022-08-19T03:34:21;20.20;99.90
12578;DHT22;6354;51.026;8.968;2022-08-19T03:36:49;20.20;99.90
12578;DHT22;6354;51.026;8.968;2022-08-19T03:39:17;20.20;99.90
12578;DHT22;6354;51.026;8.968;2022-08-19T03:41:47;20.10;99.90
12578;DHT22;6354;51.026;8.968;2022-08-19T03:44:37;20.10;99.90
12578;DHT22;6354;51.026;8.968;2022-08-19T03:47:06;20.10;99.90
12578;DHT22;6354;51.026;8.968;2022-08-19T03:49:34;20.10;99.90
12578;DHT22;6354;51.026;8.968;2022-08-19T03:52:03;20.10;99.90
12578;DHT22;6354;51.026;8.968;2022-08-19T03:54:34;20.10;99.90
12578;DHT22;6354;51.026;8.968;2022-08-19T03:57:03;20.10;99.90
12578;DHT22;6354;51.026;8.968;2022-08-19T03:59:33;20.10;99.90
12578;DHT22;6354;51.026;8.968;2022-08-19T04:02:07;20.10;99.90
12578;DHT22;6354;51.026;8.968;2022-08-19T04:04:36;20.00;99.90
12578;DHT22;6354;51.026;8.968;2022-08-19T04:07:05;20.10;99.90
12578;DHT22;6354;51.026;8.968;2022-08-19T04:09:33;20.10;99.90
12578;DHT22;6354;51.026;8.968;2022-08-19T04:12:04;20.10;99.90
12578;DHT22;6354;51.026;8.968;2022-08-19T04:14:34;20.10;99.90
12578;DHT22;6354;51.026;8.968;2022-08-19T04:17:03;20.10;99.90
12578;DHT22;6354;51.026;8.968;2022-08-19T04:19:33;20.10;99.90
12578;DHT22;6354;51.026;8.968;2022-08-19T04:22:02;20.00;99.90
12578;DHT22;6354;51.026;8.968;2022-08-19T04:24:30;20.10;99.90
12578;DHT22;6354;51.026;8.968;2022-08-19T04:26:59;20.00;99.90
12578;DHT22;6354;51.026;8.968;2022-08-19T04:29:28;20.00;99.90
12578;DHT22;6354;51.026;8.968;2022-08-19T04:31:57;20.00;99.90
12578;DHT22;6354;51.026;8.968;2022-08-19T04:34:37;20.00;99.90
12578;DHT22;6354;51.026;8.968;2022-08-19T04:37:26;20.00;99.90
12578;DHT22;6354;51.026;8.968;2022-08-19T04:40:00;20.00;99.90
12578;DHT22;6354;51.026;8.968;2022-08-19T04:42:46;20.00;99.90
12578;DHT22;6354;51.026;8.968;2022-08-19T04:45:14;20.00;99.90
12578;DHT22;6354;51.026;8.968;2022-08-19T04:47:44;20.00;99.90
12578;DHT22;6354;51.026;8.968;2022-08-19T04:50:26;20.10;99.90
12578;DHT22;6354;51.026;8.968;2022-08-19T04:52:54;20.10;99.90
12578;DHT22;6354;51.026;8.968;2022-08-19T04:55:24;20.10;99.90
12578;DHT22;6354;51.026;8.968;2022-08-19T04:57:53;20.10;99.90
12578;DHT22;6354;51.026;8.968;2022-08-19T05:00:21;20.10;99.90
12578;DHT22;6354;51.026;8.968;2022-08-19T05:02:49;20.10;99.90
12578;DHT22;6354;51.026;8.968;2022-08-19T05:05:18;20.10;99.90
12578;DHT22;6354;51.026;8.968;2022-08-19T05:07:47;20.10;99.90
12578;DHT22;6354;51.026;8.968;2022-08-19T05:10:16;20.10;99.90
12578;DHT22;6354;51.026;8.968;2022-08-19T05:12:44;20.10;99.90
12578;DHT22;6354;51.026;8.968;2022-08-19T05:15:12;20.10;99.90
12578;DHT22;6354;51.026;8.968;2022-08-19T05:17:40;20.10;99.90
12578;DHT22;6354;51.026;8.968;2022-08-19T05:20:28;20.10;99.90
12578;DHT22;6354;51.026;8.968;2022-08-19T05:23:15;20.20;99.90
12578;DHT22;6354;51.026;8.968;2022-08-19T05:25:48;20.10;99.90
12578;DHT22;6354;51.026;8.968;2022-08-19T05:28:16;20.10;99.90
12578;DHT22;6354;51.026;8.968;2022-08-19T05:30:45;20.20;99.90
12578;DHT22;6354;51.026;8.968;2022-08-19T05:33:14;20.20;99.90
12578;DHT22;6354;51.026;8.968;2022-08-19T05:35:42;20.20;99.90
12578;DHT22;6354;51.026;8.968;2022-08-19T05:38:11;20.20;99.90
12578;DHT22;6354;51.026;8.968;2022-08-19T05:40:40;20.20;99.90
12578;DHT22;6354;51.026;8.968;2022-08-19T05:43:09;20.20;99.90
12578;DHT22;6354;51.026;8.968;2022-08-19T05:45:41;20.20;99.90
12578;DHT22;6354;51.026;8.968;2022-08-19T05:48:10;20.30;99.90
12578;DHT22;6354;51.026;8.968;2022-08-19T05:50:39;20.40;99.90
12578;DHT22;6354;51.026;8.968;2022-08-19T05:53:07;20.50;99.90
12578;DHT22;6354;51.026;8.968;2022-08-19T05:55:36;20.60;99.90
12578;DHT22;6354;51.026;8.968;2022-08-19T05:58:07;20.70;99.90
12578;DHT22;6354;51.026;8.968;2022-08-19T06:00:36;20.70;99.90
12578;DHT22;6354;51.026;8.968;2022-08-19T06:03:04;20.70;99.90
12578;DHT22;6354;51.026;8.968;2022-08-19T06:05:39;20.80;99.90
12578;DHT22;6354;51.026;8.968;2022-08-19T06:08:18;20.90;99.90
12578;DHT22;6354;51.026;8.968;2022-08-19T06:11:16;20.90;99.90
12578;DHT22;6354;51.026;8.968;2022-08-19T06:13:47;21.00;99.90
12578;DHT22;6354;51.026;8.968;2022-08-19T06:16:25;21.10;99.90
12578;DHT22;6354;51.026;8.968;2022-08-19T06:18:55;21.20;99.90
12578;DHT22;6354;51.026;8.968;2022-08-19T06:21:26;21.30;99.90
12578;DHT22;6354;51.026;8.968;2022-08-19T06:23:56;21.60;99.90
12578;DHT22;6354;51.026;8.968;2022-08-19T06:26:24;22.00;99.90
12578;DHT22;6354;51.026;8.968;2022-08-19T06:28:54;22.40;99.90
12578;DHT22;6354;51.026;8.968;2022-08-19T06:31:24;22.80;99.90
12578;DHT22;6354;51.026;8.968;2022-08-19T06:33:53;23.00;99.90
12578;DHT22;6354;51.026;8.968;2022-08-19T06:36:23;23.50;99.90
12578;DHT22;6354;51.026;8.968;2022-08-19T06:38:54;23.70;99.90
12578;DHT22;6354;51.026;8.968;2022-08-19T06:41:23;24.00;99.90
12578;DHT22;6354;51.026;8.968;2022-08-19T06:43:53;24.40;99.90
12578;DHT22;6354;51.026;8.968;2022-08-19T06:46:22;24.80;99.90
12578;DHT22;6354;51.026;8.968;2022-08-19T06:48:50;25.10;99.90
12578;DHT22;6354;51.026;8.968;2022-08-19T06:51:21;25.40;99.90
12578;DHT22;6354;51.026;8.968;2022-08-19T06:53:53;25.30;99.90
12578;DHT22;6354;51.026;8.968;2022-08-19T06:56:23;25.40;99.90
12578;DHT22;6354;51.026;8.968;2022-08-19T06:58:59;25.30;99.90
12578;DHT22;6354;51.026;8.968;2022-08-19T07:01:27;25.50;99.90
12578;DHT22;6354;51.026;8.968;2022-08-19T07:03:55;25.60;99.90
12578;DHT22;6354;51.026;8.968;2022-08-19T07:06:24;25.70;99.90
12578;DHT22;6354;51.026;8.968;2022-08-19T07:09:11;25.60;99.90
12578;DHT22;6354;51.026;8.968;2022-08-19T07:11:44;25.90;99.90
12578;DHT22;6354;51.026;8.968;2022-08-19T07:14:14;26.10;99.90
12578;DHT22;6354;51.026;8.968;2022-08-19T07:16:46;26.00;99.90
12578;DHT22;6354;51.026;8.968;2022-08-19T07:19:15;26.10;99.90
12578;DHT22;6354;51.026;8.968;2022-08-19T07:21:45;26.30;99.90
12578;DHT22;6354;51.026;8.968;2022-08-19T07:24:15;26.40;99.90
12578;DHT22;6354;51.026;8.968;2022-08-19T07:26:44;26.60;99.90
12578;DHT22;6354;51.026;8.968;2022-08-19T07:29:19;26.70;99.90
12578;DHT22;6354;51.026;8.968;2022-08-19T07:31:52;26.80;99.90
12578;DHT22;6354;51.026;8.968;2022-08-19T07:34:23;26.80;99.90
12578;DHT22;6354;51.026;8.968;2022-08-19T07:36:52;26.60;99.90
12578;DHT22;6354;51.026;8.968;2022-08-19T07:39:24;26.50;99.90
12578;DHT22;6354;51.026;8.968;2022-08-19T07:41:53;26.50;99.90
12578;DHT22;6354;51.026;8.968;2022-08-19T07:44:23;26.50;99.90
12578;DHT22;6354;51.026;8.968;2022-08-19T07:46:53;26.80;99.90
12578;DHT22;6354;51.026;8.968;2022-08-19T07:49:22;26.90;99.90
12578;DHT22;6354;51.026;8.968;2022-08-19T07:51:53;27.00;99.90
12578;DHT22;6354;51.026;8.968;2022-08-19T07:54:24;26.70;99.90
12578;DHT22;6354;51.026;8.968;2022-08-19T07:56:53;26.80;99.90
12578;DHT22;6354;51.026;8.968;2022-08-19T07:59:24;27.00;99.90
12578;DHT22;6354;51.026;8.968;2022-08-19T08:01:52;27.10;99.90
12578;DHT22;6354;51.026;8.968;2022-08-19T08:04:20;27.10;99.90
12578;DHT22;6354;51.026;8.968;2022-08-19T08:07:07;27.30;99.90
12578;DHT22;6354;51.026;8.968;2022-08-19T08:09:58;26.90;99.90
12578;DHT22;6354;51.026;8.968;2022-08-19T08:12:33;26.70;99.90
12578;DHT22;6354;51.026;8.968;2022-08-19T08:15:08;26.70;99.90
12578;DHT22;6354;51.026;8.968;2022-08-19T08:17:39;26.60;99.90
12578;DHT22;6354;51.026;8.968;2022-08-19T08:20:18;26.80;99.90
12578;DHT22;6354;51.026;8.968;2022-08-19T08:22:47;26.80;99.90
12578;DHT22;6354;51.026;8.968;2022-08-19T08:25:33;26.70;99.90
12578;DHT22;6354;51.026;8.968;2022-08-19T08:28:02;26.80;99.90
12578;DHT22;6354;51.026;8.968;2022-08-19T08:30:32;26.80;99.90
12578;DHT22;6354;51.026;8.968;2022-08-19T08:33:03;26.50;99.90
12578;DHT22;6354;51.026;8.968;2022-08-19T08:35:31;26.50;99.90
12578;DHT22;6354;51.026;8.968;2022-08-19T08:38:00;26.50;99.90
12578;DHT22;6354;51.026;8.968;2022-08-19T08:40:38;26.70;99.90
12578;DHT22;6354;51.026;8.968;2022-08-19T08:43:09;26.70;99.90
12578;DHT22;6354;51.026;8.968;2022-08-19T08:45:47;26.60;99.90
12578;DHT22;6354;51.026;8.968;2022-08-19T08:48:23;26.60;99.90
12578;DHT22;6354;51.026;8.968;2022-08-19T08:50:53;26.70;99.90
12578;DHT22;6354;51.026;8.968;2022-08-19T08:53:22;26.50;99.90
12578;DHT22;6354;51.026;8.968;2022-08-19T08:55:57;26.30;99.90
12578;DHT22;6354;51.026;8.968;2022-08-19T08:58:31;26.10;99.90
12578;DHT22;6354;51.026;8.968;2022-08-19T09:01:11;26.00;99.90
12578;DHT22;6354;51.026;8.968;2022-08-19T09:03:41;25.90;99.90
12578;DHT22;6354;51.026;8.968;2022-08-19T09:06:14;25.70;99.90
12578;DHT22;6354;51.026;8.968;2022-08-19T09:08:50;25.80;99.90
12578;DHT22;6354;51.026;8.968;2022-08-19T09:11:29;25.80;99.90
12578;DHT22;6354;51.026;8.968;2022-08-19T09:14:20;25.90;99.90
12578;DHT22;6354;51.026;8.968;2022-08-19T09:17:16;25.80;99.90
12578;DHT22;6354;51.026;8.968;2022-08-19T09:19:51;26.10;99.90
12578;DHT22;6354;51.026;8.968;2022-08-19T09:22:20;26.50;99.90
12578;DHT22;6354;51.026;8.968;2022-08-19T09:24:53;26.50;99.90
12578;DHT22;6354;51.026;8.968;2022-08-19T09:27:23;26.60;99.90
12578;DHT22;6354;51.026;8.968;2022-08-19T09:30:13;26.50;99.90
12578;DHT22;6354;51.026;8.968;2022-08-19T09:32:43;26.50;99.90
12578;DHT22;6354;51.026;8.968;2022-08-19T09:35:13;26.50;99.90
12578;DHT22;6354;51.026;8.968;2022-08-19T09:37:42;26.40;99.90
12578;DHT22;6354;51.026;8.968;2022-08-19T09:40:11;26.20;99.90
12578;DHT22;6354;51.026;8.968;2022-08-19T09:42:41;26.10;99.90
12578;DHT22;6354;51.026;8.968;2022-08-19T09:45:18;26.10;99.90
12578;DHT22;6354;51.026;8.968;2022-08-19T09:47:50;26.00;99.90
12578;DHT22;6354;51.026;8.968;2022-08-19T09:50:21;26.20;99.90
12578;DHT22;6354;51.026;8.968;2022-08-19T09:52:50;26.30;99.90
12578;DHT22;6354;51.026;8.968;2022-08-19T09:55:24;26.60;99.90
12578;DHT22;6354;51.026;8.968;2022-08-19T09:57:57;26.90;99.90
12578;DHT22;6354;51.026;8.968;2022-08-19T10:00:25;26.90;99.90
12578;DHT22;6354;51.026;8.968;2022-08-19T10:02:54;26.80;99.90
12578;DHT22;6354;51.026;8.968;2022-08-19T10:05:22;26.60;99.90
12578;DHT22;6354;51.026;8.968;2022-08-19T10:08:08;26.30;99.90
12578;DHT22;6354;51.026;8.968;2022-08-19T10:10:39;26.30;99.90
12578;DHT22;6354;51.026;8.968;2022-08-19T10:13:14;26.30;99.90
12578;DHT22;6354;51.026;8.968;2022-08-19T10:15:42;26.40;99.90
12578;DHT22;6354;51.026;8.968;2022-08-19T10:18:16;26.60;99.90
12578;DHT22;6354;51.026;8.968;2022-08-19T10:20:46;26.70;99.90
12578;DHT22;6354;51.026;8.968;2022-08-19T10:23:18;26.60;99.90
12578;DHT22;6354;51.026;8.968;2022-08-19T10:25:47;26.90;99.90
12578;DHT22;6354;51.026;8.968;2022-08-19T10:28:15;27.00;99.90
12578;DHT22;6354;51.026;8.968;2022-08-19T10:30:45;26.60;99.90
12578;DHT22;6354;51.026;8.968;2022-08-19T10:33:13;26.40;99.90
12578;DHT22;6354;51.026;8.968;2022-08-19T10:36:05;26.60;99.90
12578;DHT22;6354;51.026;8.968;2022-08-19T10:38:34;26.80;99.90
12578;DHT22;6354;51.026;8.968;2022-08-19T10:41:10;27.00;99.90
12578;DHT22;6354;51.026;8.968;2022-08-19T10:43:39;27.00;99.90
12578;DHT22;6354;51.026;8.968;2022-08-19T10:46:08;26.90;99.90
12578;DHT22;6354;51.026;8.968;2022-08-19T10:48:43;27.00;99.90
12578;DHT22;6354;51.026;8.968;2022-08-19T10:51:12;27.10;99.90
12578;DHT22;6354;51.026;8.968;2022-08-19T10:54:00;27.10;99.90
12578;DHT22;6354;51.026;8.968;2022-08-19T10:56:33;27.20;99.90
12578;DHT22;6354;51.026;8.968;2022-08-19T10:59:19;27.40;99.90
12578;DHT22;6354;51.026;8.968;2022-08-19T11:01:53;27.50;99.90
12578;DHT22;6354;51.026;8.968;2022-08-19T11:04:23;27.60;99.90
12578;DHT22;6354;51.026;8.968;2022-08-19T11:06:56;27.60;99.90
12578;DHT22;6354;51.026;8.968;2022-08-19T11:09:26;27.40;99.90
12578;DHT22;6354;51.026;8.968;2022-08-19T11:12:00;27.20;99.90
12578;DHT22;6354;51.026;8.968;2022-08-19T11:14:31;27.10;99.90
12578;DHT22;6354;51.026;8.968;2022-08-19T11:17:00;27.10;99.90
12578;DHT22;6354;51.026;8.968;2022-08-19T11:19:29;27.40;99.90
12578;DHT22;6354;51.026;8.968;2022-08-19T11:21:59;27.60;99.90
12578;DHT22;6354;51.026;8.968;2022-08-19T11:24:30;27.60;99.90
12578;DHT22;6354;51.026;8.968;2022-08-19T11:27:06;27.50;99.90
12578;DHT22;6354;51.026;8.968;2022-08-19T11:29:37;27.20;99.90
12578;DHT22;6354;51.026;8.968;2022-08-19T11:32:08;26.90;99.90
12578;DHT22;6354;51.026;8.968;2022-08-19T11:34:36;26.80;99.90
12578;DHT22;6354;51.026;8.968;2022-08-19T11:37:07;26.60;99.90
12578;DHT22;6354;51.026;8.968;2022-08-19T11:39:36;26.60;99.90
12578;DHT22;6354;51.026;8.968;2022-08-19T11:42:06;26.70;99.90
12578;DHT22;6354;51.026;8.968;2022-08-19T11:44:54;26.80;99.90
12578;DHT22;6354;51.026;8.968;2022-08-19T11:47:22;26.60;99.90
12578;DHT22;6354;51.026;8.968;2022-08-19T11:49:50;26.80;99.90
12578;DHT22;6354;51.026;8.968;2022-08-19T11:52:21;27.00;99.90
12578;DHT22;6354;51.026;8.968;2022-08-19T11:54:49;27.30;99.90
12578;DHT22;6354;51.026;8.968;2022-08-19T11:57:17;27.50;99.90
12578;DHT22;6354;51.026;8.968;2022-08-19T11:59:51;27.50;99.90
12578;DHT22;6354;51.026;8.968;2022-08-19T12:02:20;27.50;99.90
12578;DHT22;6354;51.026;8.968;2022-08-19T12:04:48;27.50;99.90
12578;DHT22;6354;51.026;8.968;2022-08-19T12:07:16;27.60;99.90
12578;DHT22;6354;51.026;8.968;2022-08-19T12:09:46;27.80;99.90
12578;DHT22;6354;51.026;8.968;2022-08-19T12:12:14;27.80;99.90
12578;DHT22;6354;51.026;8.968;2022-08-19T12:14:42;27.80;99.90
12578;DHT22;6354;51.026;8.968;2022-08-19T12:17:11;27.50;99.90
12578;DHT22;6354;51.026;8.968;2022-08-19T12:19:40;27.40;99.90
12578;DHT22;6354;51.026;8.968;2022-08-19T12:22:08;27.30;99.90
12578;DHT22;6354;51.026;8.968;2022-08-19T12:24:36;27.30;99.90
12578;DHT22;6354;51.026;8.968;2022-08-19T12:27:05;27.40;99.90
12578;DHT22;6354;51.026;8.968;2022-08-19T12:29:38;27.50;99.90
12578;DHT22;6354;51.026;8.968;2022-08-19T12:32:06;27.60;99.90
12578;DHT22;6354;51.026;8.968;2022-08-19T12:34:38;27.70;99.90
12578;DHT22;6354;51.026;8.968;2022-08-19T12:37:07;27.70;99.90
12578;DHT22;6354;51.026;8.968;2022-08-19T12:39:38;27.70;99.90
12578;DHT22;6354;51.026;8.968;2022-08-19T12:42:08;27.80;99.90
12578;DHT22;6354;51.026;8.968;2022-08-19T12:44:38;27.60;99.90
12578;DHT22;6354;51.026;8.968;2022-08-19T12:47:09;27.70;99.90
12578;DHT22;6354;51.026;8.968;2022-08-19T12:49:38;27.80;99.90
12578;DHT22;6354;51.026;8.968;2022-08-19T12:52:20;27.90;99.90
12578;DHT22;6354;51.026;8.968;2022-08-19T12:54:49;27.80;99.90
12578;DHT22;6354;51.026;8.968;2022-08-19T12:57:22;27.90;99.90
12578;DHT22;6354;51.026;8.968;2022-08-19T12:59:58;27.80;99.90
12578;DHT22;6354;51.026;8.968;2022-08-19T13:02:26;27.70;99.90
12578;DHT22;6354;51.026;8.968;2022-08-19T13:04:54;27.70;99.90
12578;DHT22;6354;51.026;8.968;2022-08-19T13:07:23;27.90;99.90
12578;DHT22;6354;51.026;8.968;2022-08-19T13:09:52;28.00;99.90
12578;DHT22;6354;51.026;8.968;2022-08-19T13:12:21;28.10;99.90
12578;DHT22;6354;51.026;8.968;2022-08-19T13:14:53;28.00;99.90
12578;DHT22;6354;51.026;8.968;2022-08-19T13:17:21;28.20;99.90
12578;DHT22;6354;51.026;8.968;2022-08-19T13:19:49;28.30;99.90
12578;DHT22;6354;51.026;8.968;2022-08-19T13:22:18;28.30;99.90
12578;DHT22;6354;51.026;8.968;2022-08-19T13:24:46;28.20;99.70
12578;DHT22;6354;51.026;8.968;2022-08-19T13:27:15;28.00;99.90
12578;DHT22;6354;51.026;8.968;2022-08-19T13:29:44;28.10;99.90
12578;DHT22;6354;51.026;8.968;2022-08-19T13:32:30;28.00;99.90
12578;DHT22;6354;51.026;8.968;2022-08-19T13:35:16;27.90;99.90
12578;DHT22;6354;51.026;8.968;2022-08-19T13:37:44;28.00;99.90
12578;DHT22;6354;51.026;8.968;2022-08-19T13:40:15;27.90;99.90
12578;DHT22;6354;51.026;8.968;2022-08-19T13:42:46;27.90;99.90
12578;DHT22;6354;51.026;8.968;2022-08-19T13:45:17;27.60;99.90
12578;DHT22;6354;51.026;8.968;2022-08-19T13:47:46;27.50;99.80
12578;DHT22;6354;51.026;8.968;2022-08-19T13:50:17;27.50;99.90
12578;DHT22;6354;51.026;8.968;2022-08-19T13:52:46;27.40;99.90
12578;DHT22;6354;51.026;8.968;2022-08-19T13:55:15;27.40;99.90
12578;DHT22;6354;51.026;8.968;2022-08-19T13:57:50;27.70;99.90
12578;DHT22;6354;51.026;8.968;2022-08-19T14:00:27;27.90;99.90
12578;DHT22;6354;51.026;8.968;2022-08-19T14:02:56;28.00;99.90
12578;DHT22;6354;51.026;8.968;2022-08-19T14:05:26;28.20;99.90
12578;DHT22;6354;51.026;8.968;2022-08-19T14:07:55;28.10;99.90
12578;DHT22;6354;51.026;8.968;2022-08-19T14:10:24;28.20;99.80
12578;DHT22;6354;51.026;8.968;2022-08-19T14:12:53;28.20;99.40
12578;DHT22;6354;51.026;8.968;2022-08-19T14:15:24;28.10;98.20
12578;DHT22;6354;51.026;8.968;2022-08-19T14:17:52;28.10;97.90
12578;DHT22;6354;51.026;8.968;2022-08-19T14:20:21;27.90;99.40
12578;DHT22;6354;51.026;8.968;2022-08-19T14:22:53;27.90;99.30
12578;DHT22;6354;51.026;8.968;2022-08-19T14:25:23;27.70;99.70
12578;DHT22;6354;51.026;8.968;2022-08-19T14:27:52;27.80;99.90
12578;DHT22;6354;51.026;8.968;2022-08-19T14:30:25;27.80;99.90
12578;DHT22;6354;51.026;8.968;2022-08-19T14:32:55;27.90;99.90
12578;DHT22;6354;51.026;8.968;2022-08-19T14:35:26;27.80;99.90
12578;DHT22;6354;51.026;8.968;2022-08-19T14:37:54;27.80;99.90
12578;DHT22;6354;51.026;8.968;2022-08-19T14:40:26;27.80;99.90
12578;DHT22;6354;51.026;8.968;2022-08-19T14:42:57;27.70;99.90
12578;DHT22;6354;51.026;8.968;2022-08-19T14:45:28;27.60;99.90
12578;DHT22;6354;51.026;8.968;2022-08-19T14:47:57;27.40;99.40
12578;DHT22;6354;51.026;8.968;2022-08-19T14:50:27;27.30;99.30
12578;DHT22;6354;51.026;8.968;2022-08-19T14:52:59;27.30;99.60
12578;DHT22;6354;51.026;8.968;2022-08-19T14:55:35;27.40;99.80
12578;DHT22;6354;51.026;8.968;2022-08-19T14:58:03;27.50;99.50
12578;DHT22;6354;51.026;8.968;2022-08-19T15:00:36;27.50;99.80
12578;DHT22;6354;51.026;8.968;2022-08-19T15:03:04;27.50;99.80
12578;DHT22;6354;51.026;8.968;2022-08-19T15:05:32;27.50;99.60
12578;DHT22;6354;51.026;8.968;2022-08-19T15:08:03;27.50;99.70
12578;DHT22;6354;51.026;8.968;2022-08-19T15:10:31;27.50;99.70
12578;DHT22;6354;51.026;8.968;2022-08-19T15:12:59;27.60;99.00
12578;DHT22;6354;51.026;8.968;2022-08-19T15:15:27;27.50;98.60
12578;DHT22;6354;51.026;8.968;2022-08-19T15:17:56;27.50;98.40
12578;DHT22;6354;51.026;8.968;2022-08-19T15:20:29;27.60;98.10
12578;DHT22;6354;51.026;8.968;2022-08-19T15:22:57;27.60;98.60
12578;DHT22;6354;51.026;8.968;2022-08-19T15:25:27;27.50;98.60
12578;DHT22;6354;51.026;8.968;2022-08-19T15:27:55;27.50;99.00
12578;DHT22;6354;51.026;8.968;2022-08-19T15:30:26;27.60;99.00
12578;DHT22;6354;51.026;8.968;2022-08-19T15:32:57;27.60;98.40
12578;DHT22;6354;51.026;8.968;2022-08-19T15:35:25;27.50;98.40
12578;DHT22;6354;51.026;8.968;2022-08-19T15:37:54;27.40;99.10
12578;DHT22;6354;51.026;8.968;2022-08-19T15:40:24;27.40;99.70
12578;DHT22;6354;51.026;8.968;2022-08-19T15:42:52;27.30;99.40
12578;DHT22;6354;51.026;8.968;2022-08-19T15:45:21;27.40;99.70
12578;DHT22;6354;51.026;8.968;2022-08-19T15:47:49;27.30;99.40
12578;DHT22;6354;51.026;8.968;2022-08-19T15:50:19;27.30;99.40
12578;DHT22;6354;51.026;8.968;2022-08-19T15:52:50;27.30;99.70
12578;DHT22;6354;51.026;8.968;2022-08-19T15:55:22;27.30;99.70
12578;DHT22;6354;51.026;8.968;2022-08-19T15:58:00;27.30;99.90
12578;DHT22;6354;51.026;8.968;2022-08-19T16:00:55;27.30;99.50
12578;DHT22;6354;51.026;8.968;2022-08-19T16:03:41;27.20;98.90
12578;DHT22;6354;51.026;8.968;2022-08-19T16:06:29;27.10;98.90
12578;DHT22;6354;51.026;8.968;2022-08-19T16:08:59;27.00;99.30
12578;DHT22;6354;51.026;8.968;2022-08-19T16:11:29;26.90;99.50